createdAt,value
2022-08-03T00:00:48.197Z,61.62
2022-08-03T00:06:04.419Z,61.16
2022-08-03T00:11:06.621Z,60.55
2022-08-03T00:16:08.170Z,60.25
2022-08-03T00:21:09.549Z,59.87
2022-08-03T00:26:10.722Z,57.39
2022-08-03T00:31:13.670Z,57.99
2022-08-03T00:36:16.056Z,59.21
2022-08-03T00:41:17.224Z,65.18
2022-08-03T00:46:21.715Z,64.09
2022-08-03T00:51:23.425Z,62.48
2022-08-03T00:56:25.863Z,61.38
2022-08-03T01:01:27.101Z,60.60
2022-08-03T01:06:45.240Z,60.54
2022-08-03T01:11:59.769Z,60.21
2022-08-03T01:17:16.599Z,59.99
2022-08-03T01:22:36.333Z,57.90
2022-08-03T01:27:54.026Z,57.42
2022-08-03T01:33:01.971Z,59.75
2022-08-03T01:38:11.238Z,66.66
2022-08-03T01:44:28.093Z,65.48
2022-08-03T01:48:41.471Z,61.24
2022-08-03T01:53:44.597Z,60.51
2022-08-03T01:58:49.176Z,60.36
2022-08-03T02:04:00.431Z,59.89
2022-08-03T02:09:04.910Z,57.20
2022-08-03T02:14:07.384Z,57.64
2022-08-03T02:19:10.387Z,59.33
2022-08-03T02:24:11.941Z,64.02
2022-08-03T02:29:17.929Z,65.38
2022-08-03T02:34:21.529Z,64.13
2022-08-03T02:39:25.509Z,63.32
2022-08-03T02:44:27.771Z,62.70
2022-08-03T02:49:41.359Z,62.16
2022-08-03T02:54:54.222Z,61.79
2022-08-03T02:59:56.976Z,61.48
2022-08-03T03:05:55.047Z,61.10
2022-08-03T03:10:22.446Z,61.03
2022-08-03T03:15:30.325Z,60.88
2022-08-03T03:20:34.856Z,60.68
2022-08-03T03:25:37.540Z,60.45
2022-08-03T03:30:38.762Z,60.48
2022-08-03T03:35:42.389Z,60.33
2022-08-03T03:40:43.928Z,57.82
2022-08-03T03:45:46.630Z,58.53
2022-08-03T03:50:49.126Z,59.62
2022-08-03T03:55:58.937Z,64.95
2022-08-03T04:01:04.058Z,65.30
2022-08-03T04:06:23.997Z,63.23
2022-08-03T04:11:31.839Z,62.12
2022-08-03T04:16:43.184Z,61.60
2022-08-03T04:21:50.248Z,61.02
2022-08-03T04:26:53.936Z,60.29
2022-08-03T04:31:58.306Z,59.82
2022-08-03T04:37:04.890Z,57.67
2022-08-03T04:42:09.178Z,58.48
2022-08-03T04:47:10.706Z,60.04
2022-08-03T04:52:12.274Z,64.60
2022-08-03T04:57:21.971Z,64.57
2022-08-03T05:02:23.979Z,62.84
2022-08-03T05:07:25.454Z,61.41
2022-08-03T05:12:32.032Z,59.81
2022-08-03T05:17:33.919Z,57.07
2022-08-03T05:22:35.125Z,57.66
2022-08-03T05:27:36.305Z,58.61
2022-08-03T05:32:37.434Z,59.03
2022-08-03T05:37:38.578Z,55.95
2022-08-03T05:42:56.925Z,48.83
2022-08-03T05:47:59.298Z,42.51
2022-08-03T05:53:00.467Z,38.69
2022-08-03T05:58:03.157Z,35.34
2022-08-03T06:03:04.676Z,33.13
2022-08-03T06:08:05.856Z,30.36
2022-08-03T06:13:07.024Z,28.83
2022-08-03T06:18:08.231Z,27.95
2022-08-03T06:23:15.942Z,29.42
2022-08-03T06:28:52.813Z,30.65
2022-08-03T06:34:30.136Z,32.09
2022-08-03T06:39:01.313Z,35.08
2022-08-03T06:44:04.463Z,35.03
2022-08-03T06:49:07.157Z,32.07
2022-08-03T06:54:08.385Z,30.70
2022-08-03T06:59:09.566Z,29.17
2022-08-03T07:04:30.653Z,28.06
2022-08-03T07:09:31.992Z,28.27
2022-08-03T07:14:33.131Z,29.82
2022-08-03T07:19:35.540Z,30.45
2022-08-03T07:24:37.809Z,31.48
2022-08-03T07:29:38.948Z,29.96
2022-08-03T07:34:40.119Z,28.80
2022-08-03T07:39:41.748Z,28.11
2022-08-03T07:44:43.946Z,26.73
2022-08-03T07:49:45.557Z,26.46
2022-08-03T07:54:46.752Z,27.27
2022-08-03T07:59:49.132Z,26.87
2022-08-03T08:05:02.190Z,27.89
2022-08-03T08:10:09.141Z,29.09
2022-08-03T08:15:10.329Z,29.67
2022-08-03T08:20:16.491Z,30.38
2022-08-03T08:25:26.165Z,31.93
2022-08-03T08:30:28.708Z,32.69
2022-08-03T08:35:32.604Z,33.88
2022-08-03T08:40:36.804Z,34.83
2022-08-03T08:45:39.651Z,35.02
2022-08-03T08:50:41.342Z,35.31
2022-08-03T08:55:59.383Z,34.92
2022-08-03T09:01:03.775Z,34.97
2022-08-03T09:06:06.003Z,34.22
2022-08-03T09:11:07.377Z,34.12
2022-08-03T09:16:13.864Z,34.07
2022-08-03T09:21:35.159Z,34.07
2022-08-03T09:26:37.224Z,34.20
2022-08-03T09:31:43.565Z,34.05
2022-08-03T09:36:47.127Z,33.95
2022-08-03T09:42:03.192Z,33.32
2022-08-03T09:47:09.171Z,33.24
2022-08-03T09:52:36.806Z,32.66
2022-08-03T09:57:45.767Z,32.90
2022-08-03T10:02:49.749Z,33.32
2022-08-03T10:07:50.946Z,33.86
2022-08-03T10:12:52.187Z,34.14
2022-08-03T10:17:53.403Z,33.69
2022-08-03T10:22:55.640Z,33.53
2022-08-03T10:27:59.306Z,33.12
2022-08-03T10:33:51.060Z,33.00
2022-08-03T10:38:45.259Z,33.00
2022-08-03T10:43:58.185Z,33.06
2022-08-03T10:49:03.146Z,32.68
2022-08-03T10:54:04.332Z,32.76
2022-08-03T10:59:05.635Z,33.41
2022-08-03T11:04:18.203Z,33.06
2022-08-03T11:09:19.447Z,33.29
2022-08-03T11:14:21.441Z,33.29
2022-08-03T11:19:27.674Z,33.69
2022-08-03T11:24:53.410Z,33.44
2022-08-03T11:30:08.669Z,33.41
2022-08-03T11:35:18.006Z,33.87
2022-08-03T11:40:45.698Z,33.69
2022-08-03T11:46:05.607Z,33.86
2022-08-03T11:51:17.857Z,33.67
2022-08-03T11:56:19.680Z,33.38
2022-08-03T12:01:23.254Z,33.20
2022-08-03T12:06:24.427Z,33.26
2022-08-03T12:11:26.017Z,33.79
2022-08-03T12:16:28.016Z,33.81
2022-08-03T12:21:29.851Z,33.87
2022-08-03T12:26:58.816Z,33.67
2022-08-03T12:32:01.057Z,33.93
2022-08-03T12:37:04.745Z,34.02
2022-08-03T12:42:42.198Z,33.31
2022-08-03T12:47:50.994Z,33.47
2022-08-03T12:52:52.160Z,33.07
2022-08-03T12:57:53.266Z,33.34
2022-08-03T13:08:28.243Z,32.74
2022-08-03T13:13:48.852Z,33.06
2022-08-03T13:18:52.005Z,32.93
2022-08-03T13:23:54.205Z,33.38
2022-08-03T13:28:55.217Z,33.10
2022-08-03T13:33:56.334Z,33.23
2022-08-03T13:38:57.483Z,33.47
2022-08-03T13:44:26.165Z,33.65
2022-08-03T13:49:19.658Z,33.98
2022-08-03T13:54:20.952Z,33.99
2022-08-03T13:59:23.397Z,33.47
2022-08-03T14:04:24.521Z,33.75
2022-08-03T14:09:25.661Z,34.04
2022-08-03T14:14:26.882Z,33.89
2022-08-03T14:19:27.984Z,33.65
2022-08-03T14:24:29.444Z,33.58
2022-08-03T14:29:30.471Z,33.66
2022-08-03T14:34:31.678Z,33.71
2022-08-03T14:44:57.344Z,34.26
2022-08-03T14:50:30.261Z,34.94
2022-08-03T14:55:25.830Z,35.16
2022-08-03T15:00:39.133Z,35.54
2022-08-03T15:05:40.255Z,35.36
2022-08-03T15:10:45.445Z,35.15
2022-08-03T15:15:48.767Z,35.10
2022-08-03T15:20:50.070Z,35.17
2022-08-03T15:26:31.646Z,34.98
2022-08-03T15:31:12.425Z,35.04
2022-08-03T15:36:20.561Z,35.10
2022-08-03T15:41:21.763Z,34.84
2022-08-03T15:46:30.395Z,35.13
2022-08-03T15:51:31.535Z,34.90
2022-08-03T15:56:32.795Z,34.68
2022-08-03T16:01:34.080Z,34.61
2022-08-03T16:06:36.597Z,34.61
2022-08-03T16:11:37.896Z,35.14
2022-08-03T16:16:40.091Z,35.12
2022-08-03T16:21:48.179Z,35.16
2022-08-03T16:26:50.325Z,35.15
2022-08-03T16:31:52.521Z,35.07
2022-08-03T16:36:53.832Z,34.90
2022-08-03T16:42:01.247Z,34.75
2022-08-03T16:47:03.016Z,35.05
2022-08-03T16:52:04.412Z,35.01
2022-08-03T16:57:05.526Z,35.03
2022-08-03T17:02:10.437Z,35.43
2022-08-03T17:07:13.318Z,35.97
2022-08-03T17:12:16.066Z,36.31
2022-08-03T17:17:27.076Z,36.80
2022-08-03T17:22:33.221Z,37.07
2022-08-03T17:28:50.746Z,37.60
2022-08-03T17:32:58.232Z,38.23
2022-08-03T17:38:03.490Z,38.42
2022-08-03T17:44:14.247Z,38.27
2022-08-03T17:48:32.614Z,38.36
2022-08-03T17:53:37.834Z,38.44
2022-08-03T17:58:54.014Z,39.29
2022-08-03T18:04:02.120Z,40.64
2022-08-03T18:10:04.992Z,40.76
2022-08-03T18:14:57.259Z,41.18
2022-08-03T18:20:02.878Z,41.38
2022-08-03T18:25:09.869Z,41.57
2022-08-03T18:30:14.669Z,41.97
2022-08-03T18:35:19.038Z,42.05
2022-08-03T18:40:26.330Z,42.28
2022-08-03T18:45:57.108Z,43.20
2022-08-03T18:51:06.826Z,43.52
2022-08-03T18:56:30.833Z,43.96
2022-08-03T19:02:00.108Z,43.67
2022-08-03T19:07:07.929Z,44.10
2022-08-03T19:12:30.789Z,44.93
2022-08-03T19:17:38.412Z,46.29
2022-08-03T19:22:39.698Z,47.17
2022-08-03T19:27:48.231Z,46.74
2022-08-03T19:32:50.373Z,47.20
2022-08-03T19:37:51.758Z,47.39
2022-08-03T19:42:57.755Z,48.15
2022-08-03T19:48:09.421Z,48.68
2022-08-03T19:53:12.105Z,49.15
2022-08-03T19:58:17.739Z,50.09
2022-08-03T20:03:42.891Z,50.43
2022-08-03T20:08:44.755Z,50.29
2022-08-03T20:13:50.832Z,51.02
2022-08-03T20:18:51.937Z,51.59
2022-08-03T20:24:03.200Z,51.31
2022-08-03T20:29:42.824Z,51.71
2022-08-03T20:34:51.685Z,50.90
2022-08-03T20:39:54.473Z,51.81
2022-08-03T20:45:04.317Z,52.31
2022-08-03T20:50:07.723Z,52.66
2022-08-03T20:55:12.868Z,53.51
2022-08-03T21:00:17.902Z,53.88
2022-08-03T21:05:21.110Z,54.16
2022-08-03T21:10:33.819Z,54.53
2022-08-03T21:16:06.755Z,55.11
2022-08-03T21:21:02.845Z,55.35
2022-08-03T21:26:04.849Z,55.84
2022-08-03T21:31:07.169Z,56.35
2022-08-03T21:36:08.354Z,56.40
2022-08-03T21:41:10.022Z,56.42
2022-08-03T21:46:13.805Z,56.42
2022-08-03T21:51:18.508Z,57.05
2022-08-03T21:56:21.343Z,57.13
2022-08-03T22:01:26.867Z,57.22
2022-08-03T22:06:28.010Z,57.94
2022-08-03T22:11:29.373Z,59.17
2022-08-03T22:16:30.945Z,59.64
2022-08-03T22:21:35.748Z,59.65
2022-08-03T22:26:40.114Z,60.14
2022-08-03T22:31:58.916Z,60.29
2022-08-03T22:37:02.239Z,60.51
2022-08-03T22:42:05.052Z,60.67
2022-08-03T22:47:08.810Z,60.85
2022-08-03T22:52:11.157Z,64.70
2022-08-03T22:57:13.320Z,66.02
2022-08-03T23:02:21.106Z,64.34
2022-08-03T23:07:29.887Z,62.18
2022-08-03T23:12:34.239Z,57.59
2022-08-03T23:17:57.612Z,55.87
2022-08-03T23:23:00.466Z,57.35
2022-08-03T23:28:05.391Z,58.71
2022-08-03T23:33:08.533Z,59.16
2022-08-03T23:38:22.064Z,59.96
2022-08-03T23:43:45.274Z,60.74
2022-08-03T23:48:50.274Z,65.58
2022-08-03T23:54:01.912Z,67.09
2022-08-03T23:59:21.618Z,64.94
